Time,TemperatureF,DewpointF,PressureIn,WindDirection,WindDirectionDegrees,WindSpeedMPH,WindSpeedGustMPH,Humidity,HourlyPrecipIn,Conditions,Clouds,dailyrainin,SolarRadiationWatts/m^2,SoftwareType,DateUTC
2013-01-03 00:05:00,25.8,21.6,30.21,WSW,246,7.0,7.0,84,0.00,,,0.00,0,Wunderground v.1.15,2013-01-03 06:05:00,
2013-01-03 00:10:00,25.8,21.6,30.21,WSW,246,6.0,7.0,84,0.00,,,0.00,0,Wunderground v.1.15,2013-01-03 06:10:00,
2013-01-03 00:15:00,25.7,21.3,30.21,WSW,246,6.0,7.0,83,0.00,,,0.00,0,Wunderground v.1.15,2013-01-03 06:15:00,
2013-01-03 00:20:00,25.5,21.1,30.21,WSW,246,5.0,5.0,83,0.00,,,0.00,0,Wunderground v.1.15,2013-01-03 06:20:00,
2013-01-03 00:25:00,25.4,21.2,30.21,WSW,247,5.0,5.0,84,0.00,,,0.00,0,Wunderground v.1.15,2013-01-03 06:25:00,
2013-01-03 00:30:00,25.5,21.3,30.21,WSW,247,5.0,5.0,84,0.00,,,0.00,0,Wunderground v.1.15,2013-01-03 06:30:00,
2013-01-03 00:39:00,25.9,21.4,30.21,WSW,251,7.0,9.0,83,0.00,,,0.00,0,Wunderground v.1.15,2013-01-03 06:39:00,
2013-01-03 00:44:00,26.0,21.5,30.21,WSW,253,7.0,9.0,83,0.00,,,0.00,0,Wunderground v.1.15,2013-01-03 06:44:00,
2013-01-03 00:50:00,26.0,21.5,30.21,WSW,254,6.0,6.0,83,0.00,,,0.00,0,Wunderground v.1.15,2013-01-03 06:50:00,
2013-01-03 00:55:00,26.0,21.8,30.20,WSW,254,6.0,6.0,84,0.00,,,0.00,0,Wunderground v.1.15,2013-01-03 06:55:00,
2013-01-03 01:00:00,26.0,21.8,30.21,WSW,254,6.0,6.0,84,0.00,,,0.00,0,Wunderground v.1.15,2013-01-03 07:00:00,
2013-01-03 01:05:00,25.8,21.6,30.20,WSW,254,5.0,6.0,84,0.00,,,0.00,0,Wunderground v.1.15,2013-01-03 07:05:00,
2013-01-03 01:10:00,25.6,21.4,30.21,WSW,254,4.0,4.0,84,0.00,,,0.00,0,Wunderground v.1.15,2013-01-03 07:10:00,
2013-01-03 01:15:00,25.2,21.3,30.21,WSW,254,5.0,5.0,85,0.00,,,0.00,0,Wunderground v.1.15,2013-01-03 07:15:00,
2013-01-03 01:20:00,25.1,21.5,30.21,WSW,254,5.0,5.0,86,0.00,,,0.00,0,Wunderground v.1.15,2013-01-03 07:20:00,
2013-01-03 01:25:00,25.0,21.4,30.21,WSW,254,4.0,6.0,86,0.00,,,0.00,0,Wunderground v.1.15,2013-01-03 07:25:00,
2013-01-03 01:30:00,25.0,21.4,30.21,WSW,254,5.0,5.0,86,0.00,,,0.00,0,Wunderground v.1.15,2013-01-03 07:30:00,
2013-01-03 01:35:00,25.0,21.7,30.21,WSW,254,6.0,6.0,87,0.00,,,0.00,0,Wunderground v.1.15,2013-01-03 07:35:00,
2013-01-03 01:45:00,25.1,21.8,30.22,WSW,254,6.0,6.0,87,0.00,,,0.00,0,Wunderground v.1.15,2013-01-03 07:45:00,
2013-01-03 01:50:00,25.2,21.9,30.21,WSW,254,6.0,7.0,87,0.00,,,0.00,0,Wunderground v.1.15,2013-01-03 07:50:00,
2013-01-03 01:55:00,25.3,22.0,30.21,WSW,254,5.0,7.0,87,0.00,,,0.00,0,Wunderground v.1.15,2013-01-03 07:55:00,
2013-01-03 02:00:00,25.3,22.0,30.22,WSW,254,5.0,5.0,87,0.00,,,0.00,0,Wunderground v.1.15,2013-01-03 08:00:00,
2013-01-03 02:09:00,25.2,21.9,30.22,WSW,254,5.0,5.0,87,0.00,,,0.00,0,Wunderground v.1.15,2013-01-03 08:09:00,
2013-01-03 02:19:00,24.2,20.6,30.23,WSW,254,5.0,5.0,86,0.00,,,0.00,0,Wunderground v.1.15,2013-01-03 08:19:00,
2013-01-03 02:24:00,23.7,20.1,30.23,WSW,254,5.0,5.0,86,0.00,,,0.00,0,Wunderground v.1.15,2013-01-03 08:24:00,
2013-01-03 02:29:00,23.1,19.5,30.23,WSW,254,4.0,5.0,86,0.00,,,0.00,0,Wunderground v.1.15,2013-01-03 08:29:00,
2013-01-03 02:34:00,22.9,19.6,30.23,WSW,254,5.0,5.0,87,0.00,,,0.00,0,Wunderground v.1.15,2013-01-03 08:34:00,
2013-01-03 02:39:00,23.0,20.0,30.24,WSW,254,5.0,6.0,88,0.00,,,0.00,0,Wunderground v.1.15,2013-01-03 08:39:00,
2013-01-03 02:45:00,23.1,20.1,30.24,WSW,254,5.0,6.0,88,0.00,,,0.00,0,Wunderground v.1.15,2013-01-03 08:45:00,
2013-01-03 02:50:00,23.3,20.3,30.23,WSW,254,5.0,5.0,88,0.00,,,0.00,0,Wunderground v.1.15,2013-01-03 08:50:00,
2013-01-03 02:59:00,24.5,22.0,30.23,WSW,254,6.0,8.0,90,0.00,,,0.00,0,Wunderground v.1.15,2013-01-03 08:59:00,
2013-01-03 03:04:00,25.2,22.7,30.23,WSW,254,7.0,10.0,90,0.00,,,0.00,0,Wunderground v.1.15,2013-01-03 09:04:00,
2013-01-03 03:09:00,25.8,23.0,30.24,WSW,257,8.0,8.0,89,0.00,,,0.00,0,Wunderground v.1.15,2013-01-03 09:09:00,
2013-01-03 03:14:00,26.1,23.0,30.23,WSW,258,8.0,8.0,88,0.00,,,0.00,0,Wunderground v.1.15,2013-01-03 09:14:00,
2013-01-03 03:24:00,26.0,22.7,30.23,West,260,7.0,8.0,87,0.00,,,0.00,0,Wunderground v.1.15,2013-01-03 09:24:00,
2013-01-03 03:29:00,25.7,22.4,30.23,West,260,7.0,7.0,87,0.00,,,0.00,0,Wunderground v.1.15,2013-01-03 09:29:00,
2013-01-03 03:34:00,25.2,21.6,30.23,West,260,6.0,7.0,86,0.00,,,0.00,0,Wunderground v.1.15,2013-01-03 09:34:00,
2013-01-03 03:39:00,24.6,21.0,30.23,West,260,6.0,6.0,86,0.00,,,0.00,0,Wunderground v.1.15,2013-01-03 09:39:00,
2013-01-03 03:44:00,24.2,20.9,30.23,West,260,7.0,7.0,87,0.00,,,0.00,0,Wunderground v.1.15,2013-01-03 09:44:00,
2013-01-03 03:49:00,23.8,20.5,30.23,West,260,7.0,7.0,87,0.00,,,0.00,0,Wunderground v.1.15,2013-01-03 09:49:00,
2013-01-03 03:54:00,23.5,20.2,30.23,West,261,6.0,7.0,87,0.00,,,0.00,0,Wunderground v.1.15,2013-01-03 09:54:00,
2013-01-03 03:59:00,23.4,20.4,30.23,West,261,5.0,6.0,88,0.00,,,0.00,0,Wunderground v.1.15,2013-01-03 09:59:00,
2013-01-03 04:05:00,23.6,20.8,30.23,West,261,5.0,6.0,89,0.00,,,0.00,0,Wunderground v.1.15,2013-01-03 10:05:00,
2013-01-03 04:10:00,23.9,21.1,30.23,West,260,5.0,6.0,89,0.00,,,0.00,0,Wunderground v.1.15,2013-01-03 10:10:00,
2013-01-03 04:15:00,24.2,21.7,30.24,WSW,256,7.0,10.0,90,0.00,,,0.00,0,Wunderground v.1.15,2013-01-03 10:15:00,
2013-01-03 04:20:00,24.4,21.6,30.24,WSW,258,8.0,10.0,89,0.00,,,0.00,0,Wunderground v.1.15,2013-01-03 10:20:00,
2013-01-03 04:30:00,24.5,21.7,30.24,WSW,258,8.0,10.0,89,0.00,,,0.00,0,Wunderground v.1.15,2013-01-03 10:30:00,
2013-01-03 04:35:00,24.5,21.7,30.24,West,260,8.0,10.0,89,0.00,,,0.00,0,Wunderground v.1.15,2013-01-03 10:35:00,
2013-01-03 04:40:00,24.5,21.7,30.24,West,259,7.0,7.0,89,0.00,,,0.00,0,Wunderground v.1.15,2013-01-03 10:40:00,
2013-01-03 04:45:00,24.5,21.7,30.24,West,260,7.0,7.0,89,0.00,,,0.00,0,Wunderground v.1.15,2013-01-03 10:45:00,
2013-01-03 04:50:00,24.6,22.1,30.24,WSW,258,8.0,8.0,90,0.00,,,0.00,0,Wunderground v.1.15,2013-01-03 10:50:00,
2013-01-03 04:59:00,24.6,21.8,30.24,West,259,7.0,7.0,89,0.00,,,0.00,0,Wunderground v.1.15,2013-01-03 10:59:00,
2013-01-03 05:05:00,24.6,22.1,30.25,West,259,7.0,7.0,90,0.00,,,0.00,0,Wunderground v.1.15,2013-01-03 11:05:00,
2013-01-03 05:10:00,24.6,22.1,30.25,West,261,8.0,8.0,90,0.00,,,0.00,0,Wunderground v.1.15,2013-01-03 11:10:00,
2013-01-03 05:15:00,24.6,22.1,30.25,West,261,8.0,8.0,90,0.00,,,0.00,0,Wunderground v.1.15,2013-01-03 11:15:00,
2013-01-03 05:20:00,24.6,22.1,30.25,West,261,7.0,7.0,90,0.00,,,0.00,0,Wunderground v.1.15,2013-01-03 11:20:00,
2013-01-03 05:25:00,24.7,22.2,30.25,West,261,6.0,7.0,90,0.00,,,0.00,0,Wunderground v.1.15,2013-01-03 11:25:00,
2013-01-03 05:35:00,24.8,22.3,30.25,West,261,6.0,6.0,90,0.00,,,0.00,0,Wunderground v.1.15,2013-01-03 11:35:00,
2013-01-03 05:40:00,24.9,22.6,30.25,West,261,6.0,6.0,91,0.00,,,0.00,0,Wunderground v.1.15,2013-01-03 11:40:00,
2013-01-03 05:45:00,25.1,22.8,30.25,West,260,7.0,7.0,91,0.00,,,0.00,0,Wunderground v.1.15,2013-01-03 11:45:00,
2013-01-03 05:50:00,25.2,22.9,30.25,West,260,7.0,7.0,91,0.00,,,0.00,0,Wunderground v.1.15,2013-01-03 11:50:00,
2013-01-03 05:55:00,25.2,22.7,30.25,West,261,6.0,7.0,90,0.00,,,0.00,0,Wunderground v.1.15,2013-01-03 11:55:00,
2013-01-03 06:05:00,25.3,23.0,30.25,West,261,6.0,6.0,91,0.00,,,0.00,0,Wunderground v.1.15,2013-01-03 12:05:00,
2013-01-03 06:10:00,25.4,23.1,30.25,West,261,6.0,6.0,91,0.00,,,0.00,0,Wunderground v.1.15,2013-01-03 12:10:00,
2013-01-03 06:15:00,25.5,23.2,30.25,West,261,6.0,6.0,91,0.00,,,0.00,0,Wunderground v.1.15,2013-01-03 12:15:00,
2013-01-03 06:20:00,25.5,23.2,30.25,West,263,7.0,8.0,91,0.00,,,0.00,0,Wunderground v.1.15,2013-01-03 12:20:00,
2013-01-03 06:25:00,25.6,23.3,30.25,West,266,7.0,9.0,91,0.00,,,0.00,0,Wunderground v.1.15,2013-01-03 12:25:00,
2013-01-03 06:30:00,25.8,23.5,30.25,West,267,7.0,10.0,91,0.00,,,0.00,0,Wunderground v.1.15,2013-01-03 12:30:00,
2013-01-03 06:40:00,26.0,23.5,30.25,West,269,8.0,8.0,90,0.00,,,0.00,0,Wunderground v.1.15,2013-01-03 12:40:00,
2013-01-03 06:45:00,26.0,23.5,30.26,West,269,7.0,9.0,90,0.00,,,0.00,0,Wunderground v.1.15,2013-01-03 12:45:00,
2013-01-03 06:50:00,26.0,23.5,30.26,West,269,7.0,10.0,90,0.00,,,0.00,0,Wunderground v.1.15,2013-01-03 12:50:00,
2013-01-03 06:55:00,26.0,23.5,30.26,West,269,7.0,10.0,90,0.00,,,0.00,0,Wunderground v.1.15,2013-01-03 12:55:00,
2013-01-03 07:00:00,25.9,23.4,30.26,West,270,7.0,7.0,90,0.00,,,0.00,0,Wunderground v.1.15,2013-01-03 13:00:00,
2013-01-03 07:10:00,25.9,23.4,30.26,West,270,7.0,7.0,90,0.00,,,0.00,0,Wunderground v.1.15,2013-01-03 13:10:00,
2013-01-03 07:15:00,25.9,23.6,30.26,West,270,6.0,7.0,91,0.00,,,0.00,0,Wunderground v.1.15,2013-01-03 13:15:00,
2013-01-03 07:20:00,26.0,23.7,30.26,West,270,6.0,6.0,91,0.00,,,0.00,0,Wunderground v.1.15,2013-01-03 13:20:00,
2013-01-03 07:29:00,26.0,23.7,30.27,West,270,5.0,5.0,91,0.00,,,0.00,5,Wunderground v.1.15,2013-01-03 13:29:00,
2013-01-03 07:34:00,26.1,23.8,30.27,West,270,5.0,6.0,91,0.00,,,0.00,7,Wunderground v.1.15,2013-01-03 13:34:00,
2013-01-03 07:40:00,26.2,23.9,30.27,West,270,6.0,6.0,91,0.00,,,0.00,11,Wunderground v.1.15,2013-01-03 13:40:00,
2013-01-03 07:45:00,26.4,24.1,30.27,West,270,6.0,6.0,91,0.00,,,0.00,14,Wunderground v.1.15,2013-01-03 13:45:00,
2013-01-03 07:50:00,26.5,24.2,30.27,West,270,6.0,7.0,91,0.00,,,0.00,18,Wunderground v.1.15,2013-01-03 13:50:00,
2013-01-03 07:55:00,26.7,24.4,30.28,West,270,6.0,7.0,91,0.00,,,0.00,23,Wunderground v.1.15,2013-01-03 13:55:00,
2013-01-03 08:00:00,26.7,24.4,30.28,West,270,6.0,6.0,91,0.00,,,0.00,26,Wunderground v.1.15,2013-01-03 14:00:00,
2013-01-03 08:09:00,27.0,24.7,30.28,West,270,5.0,5.0,91,0.00,,,0.00,35,Wunderground v.1.15,2013-01-03 14:09:00,
2013-01-03 08:19:00,27.1,24.8,30.28,West,270,5.0,5.0,91,0.00,,,0.00,51,Wunderground v.1.15,2013-01-03 14:19:00,
2013-01-03 08:24:00,27.2,24.9,30.28,West,270,5.0,5.0,91,0.00,,,0.00,56,Wunderground v.1.15,2013-01-03 14:24:00,
2013-01-03 08:29:00,27.3,24.8,30.29,West,270,4.0,4.0,90,0.00,,,0.00,62,Wunderground v.1.15,2013-01-03 14:29:00,
2013-01-03 08:34:00,27.3,24.8,30.29,West,270,5.0,5.0,90,0.00,,,0.00,63,Wunderground v.1.15,2013-01-03 14:34:00,
2013-01-03 08:39:00,27.4,24.9,30.28,West,270,5.0,5.0,90,0.00,,,0.00,72,Wunderground v.1.15,2013-01-03 14:39:00,
2013-01-03 08:45:00,27.5,25.2,30.29,West,270,5.0,5.0,91,0.00,,,0.00,77,Wunderground v.1.15,2013-01-03 14:45:00,
2013-01-03 08:50:00,27.6,25.1,30.29,West,269,6.0,6.0,90,0.00,,,0.00,90,Wunderground v.1.15,2013-01-03 14:50:00,
2013-01-03 08:55:00,27.8,25.2,30.29,West,268,6.0,6.0,90,0.00,,,0.00,105,Wunderground v.1.15,2013-01-03 14:55:00,
2013-01-03 09:00:00,27.9,25.3,30.30,West,267,6.0,6.0,90,0.00,,,0.00,113,Wunderground v.1.15,2013-01-03 15:00:00,
2013-01-03 09:09:00,28.3,25.7,30.30,West,266,5.0,5.0,90,0.00,,,0.00,125,Wunderground v.1.15,2013-01-03 15:09:00,
2013-01-03 09:15:00,28.5,25.9,30.30,West,266,5.0,5.0,90,0.00,,,0.00,125,Wunderground v.1.15,2013-01-03 15:15:00,
2013-01-03 09:24:00,28.8,26.2,30.31,West,266,5.0,5.0,90,0.00,,,0.00,125,Wunderground v.1.15,2013-01-03 15:24:00,
2013-01-03 09:29:00,29.0,26.4,30.31,West,266,5.0,7.0,90,0.00,,,0.00,134,Wunderground v.1.15,2013-01-03 15:29:00,
2013-01-03 09:34:00,29.2,26.6,30.31,West,266,5.0,7.0,90,0.00,,,0.00,151,Wunderground v.1.15,2013-01-03 15:34:00,
2013-01-03 09:39:00,29.3,26.7,30.31,West,265,6.0,6.0,90,0.00,,,0.00,183,Wunderground v.1.15,2013-01-03 15:39:00,
2013-01-03 09:44:00,29.5,26.7,30.31,West,265,6.0,6.0,89,0.00,,,0.00,239,Wunderground v.1.15,2013-01-03 15:44:00,
2013-01-03 09:54:00,29.9,27.1,30.31,West,265,5.0,6.0,89,0.00,,,0.00,218,Wunderground v.1.15,2013-01-03 15:54:00,
2013-01-03 09:59:00,30.1,27.3,30.31,West,265,5.0,6.0,89,0.00,,,0.00,221,Wunderground v.1.15,2013-01-03 15:59:00,
2013-01-03 10:05:00,30.2,27.3,30.32,West,264,6.0,9.0,89,0.00,,,0.00,269,Wunderground v.1.15,2013-01-03 16:05:00,
2013-01-03 10:10:00,30.4,27.5,30.32,West,263,6.0,6.0,89,0.00,,,0.00,227,Wunderground v.1.15,2013-01-03 16:10:00,
2013-01-03 10:15:00,30.6,27.7,30.33,West,263,6.0,6.0,89,0.00,,,0.00,211,Wunderground v.1.15,2013-01-03 16:15:00,
2013-01-03 10:20:00,30.8,27.9,30.33,West,262,6.0,6.0,89,0.00,,,0.00,213,Wunderground v.1.15,2013-01-03 16:20:00,
2013-01-03 10:30:00,31.1,28.2,30.33,West,261,7.0,9.0,89,0.00,,,0.00,239,Wunderground v.1.15,2013-01-03 16:30:00,
2013-01-03 10:35:00,31.3,28.2,30.33,West,260,7.0,9.0,88,0.00,,,0.00,241,Wunderground v.1.15,2013-01-03 16:35:00,
2013-01-03 10:40:00,31.5,28.4,30.33,West,261,7.0,7.0,88,0.00,,,0.00,264,Wunderground v.1.15,2013-01-03 16:40:00,
2013-01-03 10:45:00,31.7,28.6,30.33,West,262,6.0,7.0,88,0.00,,,0.00,279,Wunderground v.1.15,2013-01-03 16:45:00,
2013-01-03 10:50:00,32.0,28.8,30.33,West,265,6.0,6.0,88,0.00,,,0.00,292,Wunderground v.1.15,2013-01-03 16:50:00,
2013-01-03 11:00:00,32.3,28.9,30.33,West,271,8.0,11.0,87,0.00,,,0.00,315,Wunderground v.1.15,2013-01-03 17:00:00,
2013-01-03 11:05:00,32.4,28.7,30.32,West,273,9.0,11.0,86,0.00,,,0.00,264,Wunderground v.1.15,2013-01-03 17:05:00,
2013-01-03 11:10:00,32.4,28.7,30.32,West,272,10.0,10.0,86,0.00,,,0.00,218,Wunderground v.1.15,2013-01-03 17:10:00,
2013-01-03 11:15:00,32.4,30.3,30.32,West,271,10.0,10.0,92,0.00,,,0.00,160,Wunderground v.1.15,2013-01-03 17:15:00,
2013-01-03 11:20:00,32.3,28.6,30.32,West,271,9.0,10.0,86,0.00,,,0.00,113,Wunderground v.1.15,2013-01-03 17:20:00,
2013-01-03 11:25:00,32.2,28.5,30.32,West,270,9.0,10.0,86,0.00,,,0.00,90,Wunderground v.1.15,2013-01-03 17:25:00,
2013-01-03 11:35:00,32.1,28.7,30.32,West,281,10.0,10.0,87,0.00,,,0.00,77,Wunderground v.1.15,2013-01-03 17:35:00,
2013-01-03 11:40:00,32.1,28.7,30.31,WNW,290,9.0,10.0,87,0.00,,,0.00,90,Wunderground v.1.15,2013-01-03 17:40:00,
2013-01-03 11:45:00,32.1,28.7,30.31,WNW,290,9.0,10.0,87,0.00,,,0.00,171,Wunderground v.1.15,2013-01-03 17:45:00,
2013-01-03 11:50:00,32.2,29.0,30.31,WNW,287,9.0,10.0,88,0.00,,,0.00,193,Wunderground v.1.15,2013-01-03 17:50:00,
2013-01-03 11:55:00,32.3,29.1,30.31,WNW,286,8.0,10.0,88,0.00,,,0.00,151,Wunderground v.1.15,2013-01-03 17:55:00,
2013-01-03 12:04:00,32.2,28.8,30.31,WNW,290,10.0,11.0,87,0.00,,,0.00,107,Wunderground v.1.15,2013-01-03 18:04:00,
2013-01-03 12:09:00,32.2,28.8,30.31,WNW,296,9.0,12.0,87,0.00,,,0.00,91,Wunderground v.1.15,2013-01-03 18:09:00,
2013-01-03 12:14:00,31.9,28.5,30.31,NW,319,10.0,12.0,87,0.00,,,0.00,76,Wunderground v.1.15,2013-01-03 18:14:00,
2013-01-03 12:19:00,31.4,27.7,30.31,NW,313,12.0,16.0,86,0.00,,,0.00,79,Wunderground v.1.15,2013-01-03 18:19:00,
2013-01-03 12:24:00,31.0,27.3,30.31,NW,322,12.0,16.0,86,0.00,,,0.00,109,Wunderground v.1.15,2013-01-03 18:24:00,
2013-01-03 12:29:00,30.8,27.1,30.31,NW,322,11.0,11.0,86,0.00,,,0.00,193,Wunderground v.1.15,2013-01-03 18:29:00,
2013-01-03 12:39:00,30.1,26.7,30.31,NW,316,13.0,14.0,87,0.00,,,0.00,155,Wunderground v.1.15,2013-01-03 18:39:00,
2013-01-03 12:44:00,29.7,26.3,30.31,NW,318,14.0,14.0,87,0.00,,,0.00,137,Wunderground v.1.15,2013-01-03 18:44:00,
2013-01-03 12:49:00,29.6,26.5,30.31,NW,315,14.0,14.0,88,0.00,,,0.00,148,Wunderground v.1.15,2013-01-03 18:49:00,
2013-01-03 12:54:00,29.3,26.2,30.30,NW,317,14.0,14.0,88,0.00,,,0.00,149,Wunderground v.1.15,2013-01-03 18:54:00,
2013-01-03 12:59:00,29.1,26.0,30.31,NW,318,13.0,13.0,88,0.00,,,0.00,148,Wunderground v.1.15,2013-01-03 18:59:00,
2013-01-03 13:04:00,29.0,25.9,30.31,NW,314,12.0,13.0,88,0.00,,,0.00,148,Wunderground v.1.15,2013-01-03 19:04:00,
2013-01-03 13:14:00,28.9,25.8,30.31,WNW,303,13.0,14.0,88,0.00,,,0.00,127,Wunderground v.1.15,2013-01-03 19:14:00,
2013-01-03 13:55:00,28.8,25.1,30.31,WNW,302,16.0,18.0,86,0.00,,,0.00,158,Wunderground v.1.15,2013-01-03 19:55:00,
2013-01-03 14:00:00,28.8,24.9,30.32,WNW,302,16.0,16.0,85,0.00,,,0.00,156,Wunderground v.1.15,2013-01-03 20:00:00,
2013-01-03 14:09:00,28.8,24.9,30.32,WNW,298,14.0,14.0,85,0.00,,,0.00,171,Wunderground v.1.15,2013-01-03 20:09:00,
2013-01-03 14:14:00,28.8,24.6,30.32,WNW,302,13.0,14.0,84,0.00,,,0.00,171,Wunderground v.1.15,2013-01-03 20:14:00,
2013-01-03 14:24:00,28.9,24.7,30.33,WNW,298,12.0,13.0,84,0.00,,,0.00,162,Wunderground v.1.15,2013-01-03 20:24:00,
2013-01-03 14:29:00,28.9,24.4,30.33,NW,304,12.0,15.0,83,0.00,,,0.00,156,Wunderground v.1.15,2013-01-03 20:29:00,
2013-01-03 14:34:00,28.9,24.4,30.33,WNW,296,12.0,15.0,83,0.00,,,0.00,174,Wunderground v.1.15,2013-01-03 20:34:00,
2013-01-03 14:39:00,28.9,24.4,30.33,WNW,299,11.0,12.0,83,0.00,,,0.00,179,Wunderground v.1.15,2013-01-03 20:39:00,
2013-01-03 14:44:00,28.9,24.1,30.33,WNW,297,12.0,12.0,82,0.00,,,0.00,155,Wunderground v.1.15,2013-01-03 20:44:00,
2013-01-03 14:49:00,28.7,23.9,30.33,WNW,301,13.0,13.0,82,0.00,,,0.00,113,Wunderground v.1.15,2013-01-03 20:49:00,
2013-01-03 14:59:00,28.2,23.7,30.34,WNW,303,11.0,11.0,83,0.00,,,0.00,223,Wunderground v.1.15,2013-01-03 20:59:00,
2013-01-03 15:04:00,28.0,23.5,30.34,WNW,302,10.0,11.0,83,0.00,,,0.00,148,Wunderground v.1.15,2013-01-03 21:04:00,
2013-01-03 15:09:00,27.9,23.4,30.34,WNW,298,9.0,9.0,83,0.00,,,0.00,162,Wunderground v.1.15,2013-01-03 21:09:00,
2013-01-03 15:14:00,28.0,23.5,30.34,WNW,296,9.0,9.0,83,0.00,,,0.00,123,Wunderground v.1.15,2013-01-03 21:14:00,
2013-01-03 15:19:00,28.1,23.3,30.34,WNW,292,10.0,10.0,82,0.00,,,0.00,134,Wunderground v.1.15,2013-01-03 21:19:00,
2013-01-03 15:29:00,27.7,22.6,30.34,WNW,294,10.0,10.0,81,0.00,,,0.00,63,Wunderground v.1.15,2013-01-03 21:29:00,
2013-01-03 15:34:00,27.4,22.3,30.34,WNW,296,9.0,10.0,81,0.00,,,0.00,90,Wunderground v.1.15,2013-01-03 21:34:00,
2013-01-03 15:39:00,27.2,22.1,30.34,WNW,294,8.0,8.0,81,0.00,,,0.00,111,Wunderground v.1.15,2013-01-03 21:39:00,
2013-01-03 15:44:00,27.0,22.2,30.34,WNW,294,7.0,8.0,82,0.00,,,0.00,102,Wunderground v.1.15,2013-01-03 21:44:00,
2013-01-03 15:49:00,26.8,22.0,30.34,WNW,294,7.0,7.0,82,0.00,,,0.00,93,Wunderground v.1.15,2013-01-03 21:49:00,
2013-01-03 15:54:00,26.7,21.9,30.34,NW,304,9.0,12.0,82,0.00,,,0.00,79,Wunderground v.1.15,2013-01-03 21:54:00,
2013-01-03 16:04:00,26.4,21.4,30.34,NW,306,12.0,14.0,81,0.00,,,0.00,58,Wunderground v.1.15,2013-01-03 22:04:00,
2013-01-03 16:09:00,26.2,21.2,30.35,NW,306,12.0,12.0,81,0.00,,,0.00,44,Wunderground v.1.15,2013-01-03 22:09:00,
2013-01-03 16:14:00,25.9,20.9,30.35,NW,306,11.0,12.0,81,0.00,,,0.00,35,Wunderground v.1.15,2013-01-03 22:14:00,
2013-01-03 16:19:00,25.5,20.8,30.35,NW,306,10.0,10.0,82,0.00,,,0.00,26,Wunderground v.1.15,2013-01-03 22:19:00,
2013-01-03 16:24:00,25.1,20.4,30.35,NW,306,8.0,10.0,82,0.00,,,0.00,23,Wunderground v.1.15,2013-01-03 22:24:00,
2013-01-03 16:34:00,24.6,19.9,30.36,NW,306,6.0,7.0,82,0.00,,,0.00,18,Wunderground v.1.15,2013-01-03 22:34:00,
2013-01-03 16:39:00,24.3,19.6,30.35,NW,306,6.0,6.0,82,0.00,,,0.00,12,Wunderground v.1.15,2013-01-03 22:39:00,
2013-01-03 16:44:00,23.9,19.2,30.35,NW,306,5.0,6.0,82,0.00,,,0.00,7,Wunderground v.1.15,2013-01-03 22:44:00,
2013-01-03 16:49:00,23.7,19.3,30.36,NW,306,5.0,5.0,83,0.00,,,0.00,0,Wunderground v.1.15,2013-01-03 22:49:00,
2013-01-03 16:54:00,23.9,20.0,30.36,NW,306,5.0,5.0,85,0.00,,,0.00,0,Wunderground v.1.15,2013-01-03 22:54:00,
2013-01-03 16:59:00,24.1,20.2,30.36,NW,306,4.0,4.0,85,0.00,,,0.00,0,Wunderground v.1.15,2013-01-03 22:59:00,
2013-01-03 17:04:00,24.2,20.3,30.36,NW,306,4.0,6.0,85,0.00,,,0.00,0,Wunderground v.1.15,2013-01-03 23:04:00,
2013-01-03 17:09:00,24.1,20.2,30.36,NW,306,6.0,8.0,85,0.00,,,0.00,0,Wunderground v.1.15,2013-01-03 23:09:00,
2013-01-03 17:14:00,23.9,19.8,30.36,NW,306,8.0,9.0,84,0.00,,,0.00,0,Wunderground v.1.15,2013-01-03 23:14:00,
2013-01-03 17:19:00,23.6,19.5,30.36,NW,306,8.0,9.0,84,0.00,,,0.00,0,Wunderground v.1.15,2013-01-03 23:19:00,
2013-01-03 17:25:00,23.3,19.2,30.37,NW,306,8.0,9.0,84,0.00,,,0.00,0,Wunderground v.1.15,2013-01-03 23:25:00,
2013-01-03 17:29:00,23.0,18.9,30.36,NW,306,7.0,7.0,84,0.00,,,0.00,0,Wunderground v.1.15,2013-01-03 23:29:00,
2013-01-03 17:39:00,22.2,18.4,30.37,NW,306,6.0,6.0,85,0.00,,,0.00,0,Wunderground v.1.15,2013-01-03 23:39:00,
2013-01-03 17:44:00,21.9,18.1,30.37,NW,306,6.0,6.0,85,0.00,,,0.00,0,Wunderground v.1.15,2013-01-03 23:44:00,
2013-01-03 17:49:00,21.7,17.9,30.37,NW,306,6.0,6.0,85,0.00,,,0.00,0,Wunderground v.1.15,2013-01-03 23:49:00,
2013-01-03 17:54:00,21.6,17.8,30.38,NW,306,5.0,6.0,85,0.00,,,0.00,0,Wunderground v.1.15,2013-01-03 23:54:00,
2013-01-03 17:59:00,21.3,17.5,30.38,NW,306,5.0,5.0,85,0.00,,,0.00,0,Wunderground v.1.15,2013-01-03 23:59:00,
2013-01-03 18:05:00,20.9,17.1,30.38,NW,306,4.0,5.0,85,0.00,,,0.00,0,Wunderground v.1.15,2013-01-04 00:05:00,
2013-01-03 18:15:00,20.9,17.4,30.38,NW,306,2.0,3.0,86,0.00,,,0.00,0,Wunderground v.1.15,2013-01-04 00:15:00,
2013-01-03 18:20:00,20.9,17.4,30.39,NW,306,3.0,3.0,86,0.00,,,0.00,0,Wunderground v.1.15,2013-01-04 00:20:00,
2013-01-03 18:25:00,20.9,17.4,30.39,NW,306,4.0,4.0,86,0.00,,,0.00,0,Wunderground v.1.15,2013-01-04 00:25:00,
2013-01-03 18:30:00,20.9,17.6,30.39,NW,306,4.0,4.0,87,0.00,,,0.00,0,Wunderground v.1.15,2013-01-04 00:30:00,
2013-01-03 18:35:00,21.1,17.8,30.39,NW,306,4.0,5.0,87,0.00,,,0.00,0,Wunderground v.1.15,2013-01-04 00:35:00,
2013-01-03 18:44:00,22.0,19.0,30.39,NW,306,6.0,7.0,88,0.00,,,0.00,0,Wunderground v.1.15,2013-01-04 00:44:00,
2013-01-03 18:49:00,22.2,18.9,30.39,NW,306,7.0,7.0,87,0.00,,,0.00,0,Wunderground v.1.15,2013-01-04 00:49:00,
2013-01-03 18:54:00,22.3,18.7,30.39,NW,306,6.0,7.0,86,0.00,,,0.00,0,Wunderground v.1.15,2013-01-04 00:54:00,
2013-01-03 18:59:00,22.3,18.5,30.39,NW,306,6.0,6.0,85,0.00,,,0.00,0,Wunderground v.1.15,2013-01-04 00:59:00,
2013-01-03 19:05:00,22.2,18.1,30.39,NW,306,5.0,6.0,84,0.00,,,0.00,0,Wunderground v.1.15,2013-01-04 01:05:00,
2013-01-03 19:10:00,21.9,17.5,30.39,NW,306,5.0,6.0,83,0.00,,,0.00,0,Wunderground v.1.15,2013-01-04 01:10:00,
2013-01-03 19:20:00,21.2,16.8,30.40,NW,306,5.0,5.0,83,0.00,,,0.00,0,Wunderground v.1.15,2013-01-04 01:20:00,
2013-01-03 19:25:00,20.9,16.5,30.40,NW,306,4.0,5.0,83,0.00,,,0.00,0,Wunderground v.1.15,2013-01-04 01:25:00,
2013-01-03 19:30:00,20.2,15.6,30.40,NW,306,4.0,4.0,82,0.00,,,0.00,0,Wunderground v.1.15,2013-01-04 01:30:00,
2013-01-03 19:35:00,19.4,14.8,30.40,NW,306,4.0,4.0,82,0.00,,,0.00,0,Wunderground v.1.15,2013-01-04 01:35:00,
2013-01-03 19:40:00,18.7,14.4,30.40,NW,306,5.0,5.0,83,0.00,,,0.00,0,Wunderground v.1.15,2013-01-04 01:40:00,
2013-01-03 19:49:00,17.3,13.0,30.40,NW,306,5.0,5.0,83,0.00,,,0.00,0,Wunderground v.1.15,2013-01-04 01:49:00,
2013-01-03 19:54:00,17.1,13.1,30.40,NW,306,5.0,5.0,84,0.00,,,0.00,0,Wunderground v.1.15,2013-01-04 01:54:00,
2013-01-03 19:59:00,17.0,13.0,30.40,NW,306,5.0,5.0,84,0.00,,,0.00,0,Wunderground v.1.15,2013-01-04 01:59:00,
2013-01-03 20:05:00,16.6,12.3,30.41,NW,306,5.0,5.0,83,0.00,,,0.00,0,Wunderground v.1.15,2013-01-04 02:05:00,
2013-01-03 20:10:00,16.2,11.9,30.41,NW,306,4.0,4.0,83,0.00,,,0.00,0,Wunderground v.1.15,2013-01-04 02:10:00,
2013-01-03 20:15:00,15.8,11.6,30.41,NW,306,4.0,4.0,83,0.00,,,0.00,0,Wunderground v.1.15,2013-01-04 02:15:00,
2013-01-03 20:25:00,15.1,11.4,30.41,NW,306,3.0,4.0,85,0.00,,,0.00,0,Wunderground v.1.15,2013-01-04 02:25:00,
2013-01-03 20:30:00,14.9,11.2,30.41,NW,306,3.0,4.0,85,0.00,,,0.00,0,Wunderground v.1.15,2013-01-04 02:30:00,
2013-01-03 20:35:00,14.7,11.0,30.41,NW,306,4.0,5.0,85,0.00,,,0.00,0,Wunderground v.1.15,2013-01-04 02:35:00,
2013-01-03 20:40:00,14.3,10.4,30.40,NW,306,4.0,4.0,84,0.00,,,0.00,0,Wunderground v.1.15,2013-01-04 02:40:00,
2013-01-03 20:45:00,14.2,10.5,30.41,NW,306,3.0,4.0,85,0.00,,,0.00,0,Wunderground v.1.15,2013-01-04 02:45:00,
2013-01-03 20:54:00,14.1,10.7,30.41,NW,306,5.0,5.0,86,0.00,,,0.00,0,Wunderground v.1.15,2013-01-04 02:54:00,
2013-01-03 20:59:00,14.4,11.2,30.41,NW,306,5.0,6.0,87,0.00,,,0.00,0,Wunderground v.1.15,2013-01-04 02:59:00,
2013-01-03 21:05:00,14.3,10.9,30.41,NW,306,6.0,6.0,86,0.00,,,0.00,0,Wunderground v.1.15,2013-01-04 03:05:00,
2013-01-03 21:10:00,13.7,10.0,30.41,NW,306,6.0,6.0,85,0.00,,,0.00,0,Wunderground v.1.15,2013-01-04 03:10:00,
2013-01-03 21:15:00,13.5,9.8,30.41,NW,306,6.0,6.0,85,0.00,,,0.00,0,Wunderground v.1.15,2013-01-04 03:15:00,
2013-01-03 21:24:00,13.6,10.2,30.42,NW,306,6.0,6.0,86,0.00,,,0.00,0,Wunderground v.1.15,2013-01-04 03:24:00,
2013-01-03 21:29:00,13.2,9.3,30.42,NW,306,4.0,4.0,84,0.00,,,0.00,0,Wunderground v.1.15,2013-01-04 03:29:00,
2013-01-03 21:34:00,12.5,8.6,30.42,NW,306,4.0,4.0,84,0.00,,,0.00,0,Wunderground v.1.15,2013-01-04 03:34:00,
2013-01-03 21:39:00,12.1,8.5,30.42,NW,306,4.0,4.0,85,0.00,,,0.00,0,Wunderground v.1.15,2013-01-04 03:39:00,
2013-01-03 21:44:00,12.1,8.7,30.42,NW,306,4.0,4.0,86,0.00,,,0.00,0,Wunderground v.1.15,2013-01-04 03:44:00,
2013-01-03 21:49:00,11.9,8.5,30.42,NW,306,4.0,4.0,86,0.00,,,0.00,0,Wunderground v.1.15,2013-01-04 03:49:00,
2013-01-03 21:54:00,12.0,8.9,30.41,NW,306,5.0,6.0,87,0.00,,,0.00,0,Wunderground v.1.15,2013-01-04 03:54:00,
2013-01-03 22:00:00,12.6,9.2,30.42,NW,305,7.0,9.0,86,0.00,,,0.00,0,Wunderground v.1.15,2013-01-04 04:00:00,
2013-01-03 22:09:00,12.7,9.0,30.42,NW,305,8.0,8.0,85,0.00,,,0.00,0,Wunderground v.1.15,2013-01-04 04:09:00,
2013-01-03 22:14:00,12.4,8.5,30.41,NW,305,8.0,8.0,84,0.00,,,0.00,0,Wunderground v.1.15,2013-01-04 04:14:00,
2013-01-03 22:19:00,12.1,8.2,30.42,NW,305,7.0,7.0,84,0.00,,,0.00,0,Wunderground v.1.15,2013-01-04 04:19:00,
2013-01-03 22:24:00,11.6,7.4,30.42,NW,305,6.0,7.0,83,0.00,,,0.00,0,Wunderground v.1.15,2013-01-04 04:24:00,
2013-01-03 22:34:00,11.1,7.2,30.41,NW,305,6.0,6.0,84,0.00,,,0.00,0,Wunderground v.1.15,2013-01-04 04:34:00,
2013-01-03 22:39:00,11.0,7.4,30.41,NW,305,6.0,6.0,85,0.00,,,0.00,0,Wunderground v.1.15,2013-01-04 04:39:00,
2013-01-03 22:44:00,11.0,7.4,30.41,NW,305,6.0,6.0,85,0.00,,,0.00,0,Wunderground v.1.15,2013-01-04 04:44:00,
2013-01-03 22:49:00,11.0,7.4,30.41,NW,305,4.0,4.0,85,0.00,,,0.00,0,Wunderground v.1.15,2013-01-04 04:49:00,
2013-01-03 22:54:00,10.8,7.2,30.41,NW,305,4.0,5.0,85,0.00,,,0.00,0,Wunderground v.1.15,2013-01-04 04:54:00,
2013-01-03 22:59:00,10.7,7.1,30.41,NW,305,4.0,4.0,85,0.00,,,0.00,0,Wunderground v.1.15,2013-01-04 04:59:00,
2013-01-03 23:04:00,10.8,7.4,30.40,NW,305,4.0,4.0,86,0.00,,,0.00,0,Wunderground v.1.15,2013-01-04 05:04:00,
2013-01-03 23:09:00,11.0,7.6,30.40,NW,305,3.0,5.0,86,0.00,,,0.00,0,Wunderground v.1.15,2013-01-04 05:09:00,
2013-01-03 23:14:00,10.3,6.4,30.40,NW,304,5.0,5.0,84,0.00,,,0.00,0,Wunderground v.1.15,2013-01-04 05:14:00,
2013-01-03 23:19:00,9.4,5.3,30.39,NW,304,5.0,6.0,83,0.00,,,0.00,0,Wunderground v.1.15,2013-01-04 05:19:00,
2013-01-03 23:24:00,8.7,4.6,30.39,NW,304,5.0,6.0,83,0.00,,,0.00,0,Wunderground v.1.15,2013-01-04 05:24:00,
2013-01-03 23:29:00,8.4,4.8,30.40,NW,304,5.0,5.0,85,0.00,,,0.00,0,Wunderground v.1.15,2013-01-04 05:29:00,
2013-01-03 23:39:00,8.9,5.8,30.40,NW,304,4.0,4.0,87,0.00,,,0.00,0,Wunderground v.1.15,2013-01-04 05:39:00,
2013-01-03 23:44:00,9.0,5.7,30.40,NW,304,4.0,5.0,86,0.00,,,0.00,0,Wunderground v.1.15,2013-01-04 05:44:00,
2013-01-03 23:49:00,9.0,5.7,30.40,NW,304,4.0,4.0,86,0.00,,,0.00,0,Wunderground v.1.15,2013-01-04 05:49:00,
2013-01-03 23:54:00,8.7,5.4,30.40,NW,304,4.0,4.0,86,0.00,,,0.00,0,Wunderground v.1.15,2013-01-04 05:54:00,
2013-01-03 23:59:00,8.5,5.2,30.40,NW,304,4.0,4.0,86,0.00,,,0.00,0,Wunderground v.1.15,2013-01-04 05:59:00,